Time;durP1;ratioP1;P1;durP2;ratioP2;P2;SDS_P1;SDS_P2;PMS_P1;PMS_P2;Temp;Humidity;BMP_temperature;BMP_pressure;BME280_temperature;BME280_humidity;BME280_pressure;Samples;Min_cycle;Max_cycle;Signal;HPM_P1;HPM_P2
2022/01/30 00:01:51;;;;;;;26.50;4.13;;;6.90;93.70;;;;;;5050131;28;20041;-49
2022/01/30 00:04:16;;;;;;;22.77;3.28;;;6.90;93.00;;;;;;5031342;28;20086;-51
2022/01/30 00:06:43;;;;;;;20.33;3.58;;;6.90;93.10;;;;;;5032205;28;20041;-48
2022/01/30 00:09:15;;;;;;;23.80;4.00;;;6.90;93.00;;;;;;5026715;28;20512;-51
2022/01/30 00:11:43;;;;;;;21.50;3.60;;;6.80;93.40;;;;;;5053541;28;20052;-51
2022/01/30 00:14:12;;;;;;;22.65;3.47;;;6.70;93.80;;;;;;5053882;28;20063;-51
2022/01/30 00:16:39;;;;;;;27.50;3.22;;;6.60;94.50;;;;;;5039930;28;20537;-49
2022/01/30 00:19:23;;;;;;;21.75;3.75;;;6.50;95.10;;;;;;5034016;28;20041;-48
2022/01/30 00:21:59;;;;;;;23.73;4.38;;;6.50;95.70;;;;;;5029875;28;20061;-51
2022/01/30 00:24:41;;;;;;;21.05;3.50;;;6.40;96.30;;;;;;5013781;28;20049;-49
2022/01/30 00:27:11;;;;;;;18.50;3.40;;;6.40;96.70;;;;;;5014097;28;20034;-51
2022/01/30 00:29:37;;;;;;;24.38;4.05;;;6.30;97.30;;;;;;5014784;28;20297;-50
2022/01/30 00:32:03;;;;;;;16.80;3.20;;;6.30;97.80;;;;;;5033640;28;20409;-48
2022/01/30 00:34:28;;;;;;;17.70;3.90;;;6.30;98.40;;;;;;5033133;28;20033;-48
2022/01/30 00:36:54;;;;;;;20.25;3.75;;;6.30;98.80;;;;;;5031522;28;20116;-48
2022/01/30 00:39:19;;;;;;;28.05;4.22;;;6.30;99.30;;;;;;5025544;28;20048;-49
2022/01/30 00:41:45;;;;;;;29.77;4.25;;;6.30;99.90;;;;;;5013588;28;20077;-48
2022/01/30 00:44:10;;;;;;;24.85;4.45;;;6.20;99.90;;;;;;5013519;28;20112;-48
2022/01/30 00:46:38;;;;;;;23.17;3.80;;;6.20;99.90;;;;;;5032483;28;20056;-49
2022/01/30 00:49:03;;;;;;;21.20;4.05;;;6.20;99.90;;;;;;5033154;28;20045;-48
2022/01/30 00:51:29;;;;;;;24.33;3.90;;;6.20;99.90;;;;;;5052516;28;20655;-50
2022/01/30 00:53:54;;;;;;;25.65;4.93;;;6.10;99.90;;;;;;5053335;28;20094;-49
2022/01/30 00:56:20;;;;;;;25.75;4.60;;;6.10;99.90;;;;;;5052830;28;20576;-52
2022/01/30 00:58:45;;;;;;;27.50;3.80;;;6.00;99.90;;;;;;5042111;28;20047;-50
2022/01/30 01:01:11;;;;;;;28.10;4.72;;;6.00;99.90;;;;;;5033025;28;20041;-49
2022/01/30 01:03:36;;;;;;;22.52;4.10;;;6.00;99.90;;;;;;5040061;28;20025;-51
2022/01/30 01:06:05;;;;;;;29.40;3.55;;;6.00;99.90;;;;;;5052752;28;20095;-54
2022/01/30 01:08:47;;;;;;;24.33;3.92;;;6.00;99.90;;;;;;5053027;28;20078;-52
2022/01/30 01:11:40;;;;;;;19.13;3.47;;;6.10;99.90;;;;;;5046673;28;20042;-54
2022/01/30 01:24:45;;;;;;;18.02;2.83;;;6.30;99.50;;;;;;5052530;28;20052;-49
2022/01/30 01:27:11;;;;;;;14.82;2.72;;;6.30;97.60;;;;;;5038306;28;20041;-48
2022/01/30 01:29:37;;;;;;;17.73;3.15;;;6.20;96.70;;;;;;5032637;28;20073;-48
2022/01/30 01:32:04;;;;;;;14.93;2.67;;;6.30;95.00;;;;;;5049902;28;20033;-52
2022/01/30 01:34:35;;;;;;;14.35;2.47;;;6.30;95.00;;;;;;5046452;28;20037;-49
2022/01/30 01:37:01;;;;;;;15.80;2.80;;;6.20;94.90;;;;;;5032168;28;20045;-51
2022/01/30 01:39:27;;;;;;;13.35;2.40;;;6.20;94.80;;;;;;5032509;28;20041;-48
2022/01/30 01:41:52;;;;;;;10.65;2.53;;;6.20;95.10;;;;;;5031684;28;20034;-48
2022/01/30 01:44:24;;;;;;;15.75;2.63;;;6.20;94.90;;;;;;5032203;28;20037;-48
2022/01/30 01:46:49;;;;;;;13.20;2.90;;;6.20;94.90;;;;;;5031822;28;20490;-49
2022/01/30 01:49:27;;;;;;;16.65;2.55;;;6.20;95.10;;;;;;5051955;28;20132;-49
2022/01/30 01:52:14;;;;;;;11.93;2.55;;;6.10;95.40;;;;;;5052189;28;20599;-49
2022/01/30 01:54:38;;;;;;;17.60;2.75;;;6.10;96.10;;;;;;5051640;28;20097;-48
2022/01/30 01:57:04;;;;;;;13.68;2.15;;;6.10;96.90;;;;;;5033322;28;20041;-48
2022/01/30 01:59:30;;;;;;;18.30;3.22;;;6.00;97.70;;;;;;5040917;28;20041;-50
2022/01/30 02:01:59;;;;;;;13.48;2.88;;;5.90;98.50;;;;;;5051413;28;20037;-51
2022/01/30 02:04:28;;;;;;;17.33;3.40;;;5.90;99.20;;;;;;5051860;28;20041;-52
2022/01/30 02:07:08;;;;;;;17.02;3.40;;;5.90;99.30;;;;;;5051894;28;20045;-50
2022/01/30 02:09:34;;;;;;;20.23;2.92;;;5.80;99.70;;;;;;5051720;28;20409;-53
2022/01/30 02:12:02;;;;;;;20.80;3.30;;;5.80;99.90;;;;;;5031542;28;20122;-53
2022/01/30 02:14:41;;;;;;;23.15;3.60;;;5.80;99.90;;;;;;5033291;28;20160;-48
2022/01/30 02:25:35;;;;;;;24.65;3.80;;;5.90;99.80;;;;;;5030719;28;20124;-48
2022/01/30 02:28:07;;;;;;;23.38;4.35;;;5.90;99.90;;;;;;5013906;28;20029;-48
2022/01/30 02:30:36;;;;;;;22.42;3.53;;;6.00;99.80;;;;;;5031113;28;20041;-48
2022/01/30 02:33:02;;;;;;;20.60;3.50;;;6.10;99.90;;;;;;5030986;28;20033;-48
2022/01/30 02:35:28;;;;;;;20.30;3.40;;;6.10;99.90;;;;;;5031256;28;20033;-48
2022/01/30 02:37:56;;;;;;;24.75;3.92;;;6.10;99.90;;;;;;5031636;28;20412;-48
2022/01/30 02:40:22;;;;;;;21.30;3.75;;;6.10;99.90;;;;;;5031528;28;20045;-48
2022/01/30 02:42:51;;;;;;;24.60;3.58;;;6.10;99.90;;;;;;5013691;28;20478;-48
2022/01/30 02:45:18;;;;;;;19.10;3.83;;;6.10;99.90;;;;;;5029472;28;20473;-48
2022/01/30 02:50:36;;;;;;;23.13;3.78;;;6.10;99.90;;;;;;5112141;22;20094;-47
2022/01/30 02:53:05;;;;;;;19.05;3.55;;;6.10;99.40;;;;;;5111192;28;20676;-49
2022/01/30 02:55:31;;;;;;;23.85;3.20;;;6.10;99.40;;;;;;5100920;28;20036;-46
2022/01/30 02:57:56;;;;;;;23.70;3.80;;;6.10;99.40;;;;;;5091346;28;20092;-48
2022/01/30 03:00:22;;;;;;;26.67;3.58;;;6.10;99.60;;;;;;5091093;28;20403;-46
2022/01/30 03:02:48;;;;;;;20.52;3.25;;;6.10;99.70;;;;;;5099042;28;20023;-47
2022/01/30 03:05:13;;;;;;;20.20;3.65;;;6.10;99.70;;;;;;5111594;28;20118;-49
2022/01/30 03:07:39;;;;;;;18.88;3.53;;;6.10;99.70;;;;;;5107672;28;20048;-46
2022/01/30 03:10:04;;;;;;;25.33;3.60;;;6.10;99.60;;;;;;5111230;28;20063;-47
2022/01/30 03:12:30;;;;;;;24.25;4.28;;;6.10;99.40;;;;;;5111462;28;20422;-46
2022/01/30 03:14:56;;;;;;;23.42;3.60;;;6.10;99.60;;;;;;5111085;28;20048;-47
2022/01/30 03:17:21;;;;;;;22.45;3.05;;;6.10;99.90;;;;;;5098944;28;20584;-47
2022/01/30 03:19:47;;;;;;;20.85;3.38;;;6.10;99.90;;;;;;5096014;28;20067;-46
2022/01/30 03:22:12;;;;;;;27.88;5.00;;;6.20;99.90;;;;;;5105424;28;20047;-47
2022/01/30 03:24:38;;;;;;;24.63;3.50;;;6.20;99.90;;;;;;5109648;28;20057;-49
2022/01/30 03:27:05;;;;;;;21.95;3.70;;;6.20;99.90;;;;;;5111413;28;20550;-47
2022/01/30 03:29:32;;;;;;;22.15;3.60;;;6.20;99.90;;;;;;5096719;28;20044;-46
2022/01/30 03:31:58;;;;;;;23.73;3.38;;;6.20;99.90;;;;;;5092191;28;20047;-46
2022/01/30 03:34:24;;;;;;;25.42;4.60;;;6.20;99.90;;;;;;5089584;28;20557;-47
2022/01/30 03:36:50;;;;;;;24.00;4.30;;;6.30;99.90;;;;;;5089951;28;20036;-46
2022/01/30 03:39:16;;;;;;;26.38;4.07;;;6.30;99.90;;;;;;5090837;28;20058;-49
2022/01/30 03:41:42;;;;;;;28.48;4.68;;;6.30;99.90;;;;;;5091002;28;20123;-46
2022/01/30 03:44:08;;;;;;;27.67;4.63;;;6.20;99.90;;;;;;5091330;28;20127;-46
2022/01/30 03:46:33;;;;;;;22.15;4.65;;;6.20;99.90;;;;;;5101636;28;20038;-48
2022/01/30 03:48:59;;;;;;;22.45;3.72;;;6.20;99.90;;;;;;5114657;28;20036;-47
2022/01/30 03:51:24;;;;;;;35.00;4.68;;;6.10;99.90;;;;;;5096571;28;20168;-50
2022/01/30 03:53:50;;;;;;;31.35;5.13;;;6.00;99.90;;;;;;5114925;28;20368;-48
2022/01/30 03:56:16;;;;;;;28.48;4.63;;;6.00;99.90;;;;;;5114554;28;20725;-49
2022/01/30 03:58:41;;;;;;;31.60;4.88;;;6.00;99.90;;;;;;5113214;28;20188;-49
2022/01/30 04:01:07;;;;;;;34.65;5.00;;;5.90;99.90;;;;;;5113274;28;20043;-49
2022/01/30 04:03:32;;;;;;;21.35;3.72;;;5.90;99.90;;;;;;5113348;28;20035;-47
2022/01/30 04:05:58;;;;;;;32.70;4.60;;;5.90;99.90;;;;;;5114470;28;20110;-47
2022/01/30 04:08:24;;;;;;;27.42;5.95;;;5.90;99.90;;;;;;5106616;28;20514;-50
2022/01/30 04:10:50;;;;;;;33.22;5.35;;;5.90;99.90;;;;;;5094161;28;20115;-50
2022/01/30 04:13:15;;;;;;;26.83;4.55;;;5.80;99.90;;;;;;5093700;28;20036;-49
2022/01/30 04:15:41;;;;;;;26.02;4.07;;;5.90;99.90;;;;;;5108559;28;20031;-52
2022/01/30 04:18:07;;;;;;;25.92;5.18;;;5.90;99.90;;;;;;5114643;28;20071;-49
2022/01/30 04:20:33;;;;;;;35.78;5.03;;;5.90;99.90;;;;;;5118469;28;20046;-49
2022/01/30 04:22:58;;;;;;;23.30;4.65;;;5.90;99.90;;;;;;5114140;28;20040;-51
2022/01/30 04:25:24;;;;;;;33.00;4.05;;;5.90;99.90;;;;;;5113991;28;20070;-52
2022/01/30 04:27:50;;;;;;;24.08;5.82;;;5.80;99.90;;;;;;5114008;28;20383;-50
2022/01/30 04:30:16;;;;;;;26.05;4.38;;;5.80;99.90;;;;;;5096875;28;20055;-53
2022/01/30 04:32:44;;;;;;;31.13;4.88;;;5.80;99.90;;;;;;5108945;28;20474;-51
2022/01/30 04:35:20;;;;;;;29.05;4.32;;;5.80;99.90;;;;;;5113804;28;20039;-51
2022/01/30 04:54:46;;;;;;;36.88;5.93;;;5.90;99.90;;;;;;5112431;28;20059;-52
2022/01/30 04:56:57;;;;;;;32.10;5.57;;;5.90;99.90;;;;;;5112599;28;20043;-51
2022/01/30 05:02:46;;;;;;;31.83;5.18;;;5.90;99.90;;;;;;5093259;28;20044;-52
2022/01/30 05:07:29;;;;;;;38.17;6.70;;;5.90;99.90;;;;;;5092976;28;20181;-51
2022/01/30 05:09:55;;;;;;;36.10;5.75;;;5.90;99.90;;;;;;5092868;28;20039;-53
2022/01/30 05:12:20;;;;;;;43.70;5.90;;;5.90;99.90;;;;;;5092738;28;20401;-51
2022/01/30 05:14:46;;;;;;;35.85;6.10;;;6.00;99.70;;;;;;5099169;28;20032;-51
2022/01/30 05:17:13;;;;;;;38.50;5.20;;;6.00;99.50;;;;;;5113216;28;20043;-50
2022/01/30 05:19:38;;;;;;;30.08;5.22;;;5.90;99.10;;;;;;5113030;28;20048;-51
2022/01/30 05:22:06;;;;;;;36.40;5.95;;;5.90;98.50;;;;;;5112798;28;20490;-52
2022/01/30 05:24:32;;;;;;;31.35;5.25;;;6.00;97.50;;;;;;5112455;28;20550;-53
2022/01/30 05:26:58;;;;;;;32.75;5.65;;;5.90;96.80;;;;;;5098417;28;20115;-49
2022/01/30 05:29:23;;;;;;;40.65;6.07;;;5.90;96.30;;;;;;5107632;28;20036;-51
2022/01/30 05:31:49;;;;;;;37.05;5.68;;;6.00;95.30;;;;;;5108470;28;20036;-50
2022/01/30 05:34:15;;;;;;;29.08;5.53;;;5.90;94.90;;;;;;5108773;28;20459;-52
2022/01/30 05:36:41;;;;;;;35.38;5.53;;;5.90;93.70;;;;;;5112396;28;20047;-50
2022/01/30 05:39:07;;;;;;;29.15;5.15;;;5.90;92.90;;;;;;5112176;28;20046;-48
2022/01/30 05:41:33;;;;;;;45.28;6.47;;;5.90;92.60;;;;;;5094325;28;20058;-51
2022/01/30 05:44:08;;;;;;;34.75;5.00;;;5.90;92.30;;;;;;5111213;28;20031;-51
2022/01/30 05:46:41;;;;;;;37.40;5.47;;;5.90;92.00;;;;;;5112679;28;20089;-52
2022/01/30 05:49:07;;;;;;;31.65;5.57;;;5.90;91.70;;;;;;5112066;28;20495;-50
2022/01/30 05:51:32;;;;;;;35.38;5.70;;;5.90;91.50;;;;;;5112638;28;20044;-49
2022/01/30 05:53:58;;;;;;;30.55;5.85;;;5.90;91.80;;;;;;5099877;28;20040;-51
2022/01/30 05:56:23;;;;;;;30.33;5.45;;;5.80;91.90;;;;;;5092108;28;20035;-51
2022/01/30 05:58:49;;;;;;;27.75;5.65;;;5.80;91.60;;;;;;5097653;28;20031;-51
2022/01/30 06:01:14;;;;;;;50.35;6.70;;;5.80;91.90;;;;;;5112352;28;20388;-52
2022/01/30 06:03:40;;;;;;;35.53;6.43;;;5.70;91.90;;;;;;5112174;28;20089;-52
2022/01/30 06:06:08;;;;;;;31.77;6.25;;;5.70;91.90;;;;;;5107828;28;20032;-48
2022/01/30 06:08:43;;;;;;;31.33;6.15;;;5.70;92.20;;;;;;5091684;28;20104;-50
2022/01/30 06:11:10;;;;;;;32.38;5.68;;;5.70;92.20;;;;;;5091882;28;20047;-49
2022/01/30 06:13:36;;;;;;;33.03;5.82;;;5.60;92.40;;;;;;5106754;28;20441;-50
2022/01/30 06:16:02;;;;;;;31.95;5.80;;;5.60;92.30;;;;;;5111794;28;20036;-51
2022/01/30 06:18:27;;;;;;;35.03;6.55;;;5.60;92.30;;;;;;5112155;28;20394;-50
2022/01/30 06:20:54;;;;;;;30.42;5.63;;;5.60;92.30;;;;;;5111199;28;20035;-48
2022/01/30 06:23:22;;;;;;;34.35;5.40;;;5.60;92.00;;;;;;5112939;28;20032;-48
2022/01/30 06:25:48;;;;;;;31.45;5.47;;;5.70;91.60;;;;;;5112687;28;20039;-48
2022/01/30 06:28:15;;;;;;;46.47;6.28;;;5.70;91.50;;;;;;5110786;28;20035;-48
2022/01/30 06:30:40;;;;;;;30.20;5.70;;;5.70;91.20;;;;;;5111671;28;20082;-49
2022/01/30 06:33:06;;;;;;;39.20;6.63;;;5.70;91.30;;;;;;5112322;28;20059;-49
2022/01/30 06:35:31;;;;;;;38.40;6.68;;;5.70;91.20;;;;;;5096955;28;20051;-49
2022/01/30 06:37:57;;;;;;;30.63;5.55;;;5.70;91.40;;;;;;5090198;28;20503;-48
2022/01/30 06:40:22;;;;;;;39.50;6.72;;;5.70;91.20;;;;;;5073304;28;20071;-48
2022/01/30 06:42:48;;;;;;;41.33;6.72;;;5.70;91.10;;;;;;5094487;28;20066;-48
2022/01/30 06:45:13;;;;;;;41.05;6.38;;;5.70;91.00;;;;;;5101131;28;20036;-51
2022/01/30 06:47:43;;;;;;;46.38;6.45;;;5.70;91.00;;;;;;5091634;28;20036;-48
2022/01/30 06:50:09;;;;;;;42.17;6.38;;;5.70;91.00;;;;;;5089890;28;20111;-50
2022/01/30 06:52:35;;;;;;;42.92;6.20;;;5.70;90.90;;;;;;5091467;28;20039;-51
2022/01/30 06:55:01;;;;;;;25.42;5.68;;;5.70;90.90;;;;;;5091282;28;20036;-51
2022/01/30 06:57:26;;;;;;;45.85;6.95;;;5.70;91.00;;;;;;5103073;28;20050;-51
2022/01/30 06:59:51;;;;;;;40.42;6.72;;;5.70;90.90;;;;;;5102459;28;20035;-50
2022/01/30 07:02:17;;;;;;;35.38;5.80;;;5.70;91.00;;;;;;5091351;28;20040;-48
2022/01/30 07:04:43;;;;;;;36.85;7.15;;;5.70;91.30;;;;;;5091348;28;20522;-48
2022/01/30 07:07:08;;;;;;;38.25;6.40;;;5.80;91.20;;;;;;5091765;28;20036;-48
2022/01/30 07:09:34;;;;;;;39.72;6.78;;;5.80;90.90;;;;;;5090063;28;20082;-48
2022/01/30 07:12:00;;;;;;;43.35;7.13;;;5.90;90.80;;;;;;5101562;28;20039;-48
2022/01/30 07:14:25;;;;;;;45.35;7.25;;;5.90;90.80;;;;;;5103635;28;20040;-50
2022/01/30 07:16:51;;;;;;;44.58;7.20;;;5.90;91.00;;;;;;5091195;28;20044;-51
2022/01/30 07:19:16;;;;;;;35.53;6.57;;;5.90;90.90;;;;;;5093599;28;20430;-48
2022/01/30 07:21:42;;;;;;;45.33;7.20;;;5.90;91.10;;;;;;5098800;28;20067;-48
2022/01/30 07:24:08;;;;;;;45.17;6.53;;;6.00;91.00;;;;;;5108593;28;20074;-48
2022/01/30 07:26:33;;;;;;;43.10;6.68;;;5.90;90.90;;;;;;5113360;28;20138;-47
2022/01/30 07:29:00;;;;;;;33.95;6.20;;;6.00;90.80;;;;;;5114223;28;20034;-48
2022/01/30 07:31:25;;;;;;;37.00;6.75;;;6.00;90.80;;;;;;5115028;28;20095;-50
2022/01/30 07:33:51;;;;;;;40.78;5.65;;;6.00;90.70;;;;;;5112153;28;20027;-49
2022/01/30 07:36:16;;;;;;;33.53;6.43;;;6.00;90.60;;;;;;5113682;28;20047;-49
2022/01/30 07:38:43;;;;;;;45.25;7.05;;;6.00;90.30;;;;;;5111780;28;20113;-48
2022/01/30 07:41:09;;;;;;;43.90;6.10;;;6.10;90.20;;;;;;5111932;28;20036;-47
2022/01/30 07:43:35;;;;;;;31.10;6.10;;;6.10;90.10;;;;;;5084492;28;20036;-48
2022/01/30 07:46:03;;;;;;;36.53;6.53;;;6.10;90.10;;;;;;5101390;28;20034;-50
2022/01/30 07:48:28;;;;;;;29.15;5.60;;;6.10;90.00;;;;;;5097440;28;20078;-51
2022/01/30 07:50:54;;;;;;;39.63;7.65;;;6.10;90.10;;;;;;5100912;28;20067;-50
2022/01/30 07:53:19;;;;;;;36.53;7.22;;;6.10;90.00;;;;;;5103353;28;20028;-51
2022/01/30 07:55:45;;;;;;;33.08;5.90;;;6.10;90.00;;;;;;5102197;28;20039;-52
2022/01/30 07:58:10;;;;;;;38.03;6.80;;;6.10;89.90;;;;;;5098790;28;20039;-51
2022/01/30 08:00:37;;;;;;;42.97;7.25;;;6.10;90.00;;;;;;5104988;28;20503;-51
2022/01/30 08:03:03;;;;;;;44.13;7.22;;;6.10;89.50;;;;;;5099495;28;20044;-50
2022/01/30 08:05:30;;;;;;;35.65;6.50;;;6.20;88.70;;;;;;5103858;28;20036;-47
2022/01/30 08:07:56;;;;;;;36.75;6.88;;;6.20;88.60;;;;;;5084780;28;20522;-51
2022/01/30 08:10:22;;;;;;;38.63;6.57;;;6.20;88.40;;;;;;5101255;28;20032;-51
2022/01/30 08:12:47;;;;;;;46.05;8.38;;;6.20;88.30;;;;;;5101203;28;20505;-51
2022/01/30 08:15:13;;;;;;;40.00;7.65;;;6.20;88.20;;;;;;5104296;28;20021;-48
2022/01/30 08:17:39;;;;;;;44.35;6.15;;;6.20;87.30;;;;;;5103666;28;20039;-51
2022/01/30 08:20:09;;;;;;;34.40;6.38;;;6.30;86.50;;;;;;5109282;28;20510;-51
2022/01/30 08:22:49;;;;;;;38.80;6.20;;;6.30;85.00;;;;;;5104184;28;20384;-48
2022/01/30 08:25:17;;;;;;;43.28;6.07;;;6.30;85.80;;;;;;5099208;28;20044;-51
2022/01/30 08:27:42;;;;;;;40.30;5.95;;;6.30;84.40;;;;;;5096553;28;20118;-51
2022/01/30 08:30:08;;;;;;;39.97;7.25;;;6.40;83.80;;;;;;5105715;28;20123;-47
2022/01/30 08:32:39;;;;;;;38.13;6.75;;;6.40;84.90;;;;;;5101849;28;20119;-48
2022/01/30 08:35:05;;;;;;;37.92;6.93;;;6.30;85.30;;;;;;5095438;28;20047;-49
2022/01/30 08:37:31;;;;;;;47.10;7.10;;;6.30;85.60;;;;;;5096444;28;20403;-49
2022/01/30 08:39:56;;;;;;;47.55;7.07;;;6.30;85.20;;;;;;5102806;28;20039;-48
2022/01/30 08:42:22;;;;;;;32.47;6.68;;;6.30;85.10;;;;;;5098374;28;20051;-48
2022/01/30 08:44:47;;;;;;;42.17;7.43;;;6.30;84.80;;;;;;5098644;28;20602;-50
2022/01/30 08:47:13;;;;;;;40.17;7.70;;;6.40;85.10;;;;;;5113964;28;20503;-50
2022/01/30 08:49:38;;;;;;;37.70;7.70;;;6.40;85.90;;;;;;5116158;22;20046;-53
2022/01/30 08:52:04;;;;;;;41.05;7.10;;;6.40;85.70;;;;;;5032842;28;20052;-53
2022/01/30 08:54:30;;;;;;;36.92;7.20;;;6.50;85.50;;;;;;5024430;28;20041;-53
2022/01/30 08:56:55;;;;;;;43.08;8.10;;;6.50;86.10;;;;;;5033199;28;20033;-52
2022/01/30 08:59:21;;;;;;;49.15;8.63;;;6.50;85.70;;;;;;5032961;28;20421;-53
2022/01/30 09:01:46;;;;;;;42.47;7.82;;;6.40;86.00;;;;;;5032910;28;20503;-52
2022/01/30 09:04:14;;;;;;;54.40;7.43;;;6.40;85.70;;;;;;5032820;28;20041;-54
2022/01/30 09:06:39;;;;;;;43.85;7.28;;;6.40;85.30;;;;;;5031801;28;20076;-54
2022/01/30 09:09:05;;;;;;;39.40;7.50;;;6.50;85.60;;;;;;5030237;28;20123;-54
2022/01/30 09:11:34;;;;;;;48.83;7.03;;;6.40;83.90;;;;;;5032782;28;20096;-53
2022/01/30 09:13:59;;;;;;;43.58;7.80;;;6.50;84.20;;;;;;5032859;28;20040;-53
2022/01/30 09:16:25;;;;;;;41.08;7.90;;;6.50;83.50;;;;;;5032494;28;20113;-54
2022/01/30 09:18:50;;;;;;;42.35;6.97;;;6.50;83.00;;;;;;5032694;28;20433;-54
2022/01/30 09:21:16;;;;;;;43.17;6.75;;;6.60;81.70;;;;;;5032362;28;20046;-53
2022/01/30 09:23:41;;;;;;;39.22;6.53;;;6.70;78.60;;;;;;5032031;28;20116;-53
2022/01/30 09:26:07;;;;;;;43.13;8.10;;;6.60;77.90;;;;;;5032468;28;20041;-52
2022/01/30 09:28:33;;;;;;;46.45;7.40;;;6.70;77.50;;;;;;5031201;28;20042;-51
2022/01/30 09:30:58;;;;;;;32.30;5.85;;;6.80;76.90;;;;;;5032342;28;20056;-55
2022/01/30 09:33:24;;;;;;;40.60;7.68;;;6.80;76.00;;;;;;5032360;28;20068;-53
2022/01/30 09:35:49;;;;;;;33.90;5.85;;;6.90;74.70;;;;;;5032084;28;20513;-53
2022/01/30 09:38:15;;;;;;;36.20;6.18;;;6.90;74.30;;;;;;5031285;28;20037;-54
2022/01/30 09:40:40;;;;;;;35.72;6.47;;;6.80;73.80;;;;;;5032229;28;20064;-53
2022/01/30 09:43:06;;;;;;;34.63;5.95;;;6.80;73.10;;;;;;5032341;28;20520;-53
2022/01/30 09:45:33;;;;;;;32.13;5.90;;;6.80;73.30;;;;;;5031466;28;20393;-53
2022/01/30 09:47:59;;;;;;;41.03;6.55;;;6.70;73.00;;;;;;5032181;28;20131;-50
2022/01/30 09:50:25;;;;;;;31.20;6.18;;;6.70;73.80;;;;;;5031468;28;20037;-53
2022/01/30 09:52:51;;;;;;;37.78;6.93;;;6.70;74.70;;;;;;5031335;28;20045;-54
2022/01/30 09:55:17;;;;;;;37.30;7.28;;;6.80;74.30;;;;;;5031953;28;20040;-52
2022/01/30 09:57:43;;;;;;;32.40;6.78;;;6.80;74.10;;;;;;5032109;28;20041;-52
2022/01/30 10:00:10;;;;;;;29.40;5.03;;;6.80;74.90;;;;;;5031786;28;20049;-54
2022/01/30 10:02:39;;;;;;;31.23;5.93;;;6.80;73.30;;;;;;5031640;28;20045;-54
2022/01/30 10:05:05;;;;;;;41.35;7.45;;;6.80;74.40;;;;;;5031627;28;20048;-54
2022/01/30 10:07:52;;;;;;;36.63;6.30;;;6.80;74.70;;;;;;5031381;28;20452;-54
2022/01/30 10:10:23;;;;;;;35.78;6.32;;;6.90;74.80;;;;;;5031687;28;20041;-54
2022/01/30 10:13:09;;;;;;;;;;;6.90;75.40;;;;;;5032046;28;20384;-54
2022/01/30 10:15:56;;;;;;;34.80;5.60;;;7.00;74.80;;;;;;5030814;28;19972;-53
2022/01/30 10:18:22;;;;;;;40.35;6.10;;;7.10;75.20;;;;;;5031040;28;20493;-53
2022/01/30 10:20:48;;;;;;;39.58;6.60;;;7.10;75.40;;;;;;5031649;28;20048;-54
2022/01/30 10:23:14;;;;;;;42.25;7.85;;;7.10;75.70;;;;;;5031550;28;20041;-54
2022/01/30 10:25:50;;;;;;;38.50;7.18;;;7.20;75.20;;;;;;5031421;28;20073;-54
2022/01/30 10:28:19;;;;;;;44.00;7.15;;;7.20;75.20;;;;;;5031381;28;20041;-54
2022/01/30 10:31:00;;;;;;;34.00;7.00;;;7.30;75.70;;;;;;5031074;28;20041;-50
2022/01/30 10:33:47;;;;;;;38.72;7.05;;;7.40;74.70;;;;;;5013411;28;20402;-50
2022/01/30 10:36:21;;;;;;;35.47;6.68;;;7.40;74.90;;;;;;5011503;28;20029;-51
2022/01/30 10:39:04;;;;;;;36.58;6.55;;;7.40;75.50;;;;;;5013010;28;20050;-51
2022/01/30 10:41:38;;;;;;;42.60;6.18;;;7.40;75.80;;;;;;5031195;28;20037;-53
2022/01/30 10:44:06;;;;;;;41.08;7.00;;;7.40;75.20;;;;;;5030994;28;20568;-50
2022/01/30 10:46:45;;;;;;;45.25;7.10;;;7.30;76.40;;;;;;5027561;28;20038;-49
2022/01/30 10:49:13;;;;;;;42.28;7.88;;;7.40;77.50;;;;;;5024551;28;20497;-48
2022/01/30 10:51:40;;;;;;;35.10;7.20;;;7.40;77.70;;;;;;5031015;28;20045;-49
2022/01/30 10:54:10;;;;;;;47.75;7.78;;;7.40;78.10;;;;;;5033715;28;20041;-48
2022/01/30 10:56:37;;;;;;;43.88;7.13;;;7.30;78.70;;;;;;5034016;28;20041;-48
2022/01/30 10:59:07;;;;;;;37.15;6.35;;;7.40;79.30;;;;;;5035050;28;20448;-48
2022/01/30 11:01:32;;;;;;;40.15;7.07;;;7.40;79.80;;;;;;5034913;28;20041;-47
2022/01/30 11:04:00;;;;;;;46.58;7.13;;;7.40;80.20;;;;;;5035324;28;20053;-48
2022/01/30 11:06:28;;;;;;;36.17;6.93;;;7.40;80.60;;;;;;5035076;28;20038;-48
2022/01/30 11:09:03;;;;;;;41.20;8.05;;;7.30;80.20;;;;;;5035022;28;20065;-47
2022/01/30 11:11:40;;;;;;;33.40;7.55;;;7.40;80.20;;;;;;5034936;28;20117;-50
2022/01/30 11:19:20;;;;;;;40.20;6.97;;;7.40;79.00;;;;;;5034734;28;20056;-49
2022/01/30 11:21:51;;;;;;;42.35;6.55;;;7.40;78.40;;;;;;5034818;28;20045;-49
2022/01/30 11:24:19;;;;;;;36.88;6.45;;;7.50;76.30;;;;;;5035048;28;20428;-50
2022/01/30 11:26:46;;;;;;;39.15;6.75;;;7.50;75.70;;;;;;5034628;28;20049;-49
2022/01/30 11:29:15;;;;;;;32.28;6.10;;;7.50;75.60;;;;;;5034867;28;20429;-52
2022/01/30 11:31:41;;;;;;;31.02;6.50;;;7.60;76.30;;;;;;5034742;28;20045;-53
2022/01/30 11:34:07;;;;;;;33.05;6.30;;;7.60;74.60;;;;;;5034588;28;20041;-53
2022/01/30 11:36:34;;;;;;;35.85;7.10;;;7.70;74.00;;;;;;5034576;28;20029;-53
2022/01/30 11:39:01;;;;;;;35.10;6.45;;;7.80;72.80;;;;;;5034342;28;20044;-53
2022/01/30 11:41:30;;;;;;;43.80;6.22;;;7.80;72.90;;;;;;5034147;28;20038;-55
2022/01/30 11:44:18;;;;;;;35.15;7.18;;;7.80;73.10;;;;;;5034552;28;20044;-53
2022/01/30 11:46:53;;;;;;;42.47;6.40;;;7.80;72.50;;;;;;5033027;28;20048;-53
2022/01/30 11:49:19;;;;;;;34.17;6.47;;;7.70;72.10;;;;;;5034067;28;20045;-54
2022/01/30 11:51:52;;;;;;;33.33;5.50;;;7.70;72.50;;;;;;5034109;28;20030;-53
2022/01/30 11:54:37;;;;;;;38.85;5.85;;;7.70;71.10;;;;;;5034324;28;20472;-52
2022/01/30 11:57:23;;;;;;;27.15;5.60;;;7.80;70.10;;;;;;5016431;28;20508;-55
2022/01/30 11:59:54;;;;;;;31.42;5.57;;;7.80;68.40;;;;;;5022899;28;20057;-53
2022/01/30 12:02:30;;;;;;;33.03;5.70;;;7.80;68.80;;;;;;5034258;28;20159;-52
2022/01/30 12:05:10;;;;;;;34.22;5.78;;;7.80;68.60;;;;;;5032872;28;20069;-52
2022/01/30 12:07:47;;;;;;;27.75;5.80;;;7.80;69.20;;;;;;5034428;28;20041;-53
2022/01/30 12:10:21;;;;;;;30.85;6.00;;;7.80;68.30;;;;;;5034045;28;20042;-54
2022/01/30 12:13:03;;;;;;;24.52;4.78;;;7.70;67.40;;;;;;5034397;28;20069;-53
2022/01/30 12:15:46;;;;;;;31.37;5.37;;;7.70;69.00;;;;;;5033582;28;20033;-55
2022/01/30 12:18:11;;;;;;;;;;;7.70;69.70;;;;;;5034369;28;20045;-54
2022/01/30 12:21:00;;;;;;;40.40;6.47;;;7.70;69.50;;;;;;5033539;28;19917;-55
2022/01/30 12:23:26;;;;;;;38.20;5.88;;;7.70;70.40;;;;;;5033842;28;20037;-56
2022/01/30 12:25:54;;;;;;;34.28;6.07;;;7.80;69.70;;;;;;5033617;28;20045;-53
2022/01/30 12:28:19;;;;;;;38.20;6.32;;;7.80;69.80;;;;;;5033449;28;20647;-55
2022/01/30 12:30:47;;;;;;;33.63;6.07;;;7.80;70.30;;;;;;5033429;28;20042;-55
2022/01/30 12:33:34;;;;;;;35.05;5.38;;;7.90;70.80;;;;;;5030828;28;20045;-53
2022/01/30 12:36:02;;;;;;;33.42;6.03;;;8.00;70.20;;;;;;5026411;28;20091;-53
2022/01/30 12:38:34;;;;;;;36.45;5.90;;;8.00;69.30;;;;;;5033351;28;20087;-50
2022/01/30 12:41:11;;;;;;;32.60;6.15;;;8.00;68.00;;;;;;5033310;28;20049;-50
2022/01/30 12:43:37;;;;;;;27.98;5.30;;;8.00;68.60;;;;;;5033306;28;20045;-50
2022/01/30 12:46:10;;;;;;;31.02;5.85;;;7.90;67.90;;;;;;5033068;28;20076;-50
2022/01/30 12:48:36;;;;;;;32.15;5.82;;;7.90;68.10;;;;;;5033308;28;20528;-53
2022/01/30 12:51:07;;;;;;;32.00;5.43;;;7.90;68.80;;;;;;5031400;28;20386;-51
2022/01/30 12:53:35;;;;;;;37.72;6.35;;;7.70;69.50;;;;;;5032402;28;20048;-52
2022/01/30 12:56:01;;;;;;;33.33;6.00;;;7.70;69.70;;;;;;5025119;28;20525;-53
2022/01/30 12:58:34;;;;;;;40.67;6.82;;;7.70;70.70;;;;;;5022573;28;20041;-51
2022/01/30 13:01:12;;;;;;;34.53;6.63;;;7.70;70.80;;;;;;5025490;28;20120;-55
2022/01/30 13:03:38;;;;;;;40.80;6.43;;;7.80;70.50;;;;;;5009576;28;20092;-54
2022/01/30 13:06:04;;;;;;;42.90;6.43;;;7.80;71.40;;;;;;5016552;28;20448;-53
2022/01/30 13:08:47;;;;;;;34.10;6.07;;;7.80;71.20;;;;;;5029325;28;20045;-53
2022/01/30 13:11:23;;;;;;;41.45;6.35;;;7.70;71.50;;;;;;5017732;28;20121;-55
2022/01/30 13:14:09;;;;;;;34.78;6.75;;;7.80;71.60;;;;;;5013042;28;20065;-53
2022/01/30 13:16:42;;;;;;;37.58;5.90;;;7.80;71.40;;;;;;5018397;28;20038;-53
2022/01/30 13:19:12;;;;;;;32.85;5.95;;;7.80;72.30;;;;;;5019808;28;20108;-53
2022/01/30 13:21:45;;;;;;;38.25;6.38;;;7.80;72.30;;;;;;5017267;28;20037;-53
2022/01/30 13:24:15;;;;;;;32.33;5.75;;;7.80;72.70;;;;;;5017820;28;20901;-54
2022/01/30 13:26:43;;;;;;;35.50;6.75;;;7.80;72.60;;;;;;5019963;28;20520;-51
2022/01/30 13:29:12;;;;;;;37.10;6.00;;;7.80;71.30;;;;;;5017076;28;20038;-53
2022/01/30 13:31:38;;;;;;;39.35;6.05;;;7.80;71.20;;;;;;5023604;28;20045;-51
2022/01/30 13:34:19;;;;;;;34.22;5.78;;;7.80;70.80;;;;;;5016725;28;20038;-54
2022/01/30 13:36:53;;;;;;;30.60;5.07;;;7.80;71.10;;;;;;5018703;28;20034;-52
2022/01/30 13:39:31;;;;;;;29.42;5.32;;;7.90;72.30;;;;;;5015740;28;20465;-54
2022/01/30 13:42:26;;;;;;;35.40;5.82;;;7.90;71.10;;;;;;5020613;28;20464;-49
2022/01/30 13:45:03;;;;;;;34.75;6.25;;;8.00;71.50;;;;;;5020288;28;20038;-50